sensor_id;sensor_type;location;lat;lon;timestamp;P1;durP1;ratioP1;P2;durP2;ratioP2
19137;SDS011;68178;52.188;5.598;2023-06-22T00:02:13;6.63;;;6.00;;
19137;SDS011;68178;52.188;5.598;2023-06-22T00:04:39;5.20;;;4.70;;
19137;SDS011;68178;52.188;5.598;2023-06-22T00:07:05;5.57;;;5.18;;
19137;SDS011;68178;52.188;5.598;2023-06-22T00:09:31;6.50;;;5.65;;
19137;SDS011;68178;52.188;5.598;2023-06-22T00:11:56;6.50;;;5.90;;
19137;SDS011;68178;52.188;5.598;2023-06-22T00:14:22;6.50;;;5.78;;
19137;SDS011;68178;52.188;5.598;2023-06-22T00:16:47;6.80;;;6.20;;
19137;SDS011;68178;52.188;5.598;2023-06-22T00:19:14;7.20;;;6.15;;
19137;SDS011;68178;52.188;5.598;2023-06-22T00:21:40;6.85;;;6.15;;
19137;SDS011;68178;52.188;5.598;2023-06-22T00:24:07;6.97;;;6.32;;
19137;SDS011;68178;52.188;5.598;2023-06-22T00:26:32;7.57;;;6.50;;
19137;SDS011;68178;52.188;5.598;2023-06-22T00:28:58;6.47;;;5.88;;
19137;SDS011;68178;52.188;5.598;2023-06-22T00:31:24;10.73;;;7.13;;
19137;SDS011;68178;52.188;5.598;2023-06-22T00:33:49;6.30;;;5.70;;
19137;SDS011;68178;52.188;5.598;2023-06-22T00:36:15;8.65;;;5.55;;
19137;SDS011;68178;52.188;5.598;2023-06-22T00:38:42;6.20;;;5.70;;
19137;SDS011;68178;52.188;5.598;2023-06-22T00:41:08;8.85;;;6.13;;
19137;SDS011;68178;52.188;5.598;2023-06-22T00:43:34;11.13;;;6.60;;
19137;SDS011;68178;52.188;5.598;2023-06-22T00:45:59;6.65;;;6.00;;
19137;SDS011;68178;52.188;5.598;2023-06-22T00:48:25;7.28;;;6.13;;
19137;SDS011;68178;52.188;5.598;2023-06-22T00:50:51;6.97;;;6.28;;
19137;SDS011;68178;52.188;5.598;2023-06-22T00:53:19;8.35;;;6.40;;
19137;SDS011;68178;52.188;5.598;2023-06-22T00:55:44;7.15;;;6.32;;
19137;SDS011;68178;52.188;5.598;2023-06-22T00:58:12;7.25;;;6.60;;
19137;SDS011;68178;52.188;5.598;2023-06-22T01:00:41;7.20;;;6.15;;
19137;SDS011;68178;52.188;5.598;2023-06-22T01:03:07;7.00;;;6.22;;
19137;SDS011;68178;52.188;5.598;2023-06-22T01:05:36;7.93;;;6.32;;
19137;SDS011;68178;52.188;5.598;2023-06-22T01:08:07;8.68;;;6.38;;
19137;SDS011;68178;52.188;5.598;2023-06-22T01:11:08;6.63;;;5.93;;
19137;SDS011;68178;52.188;5.598;2023-06-22T01:13:43;8.40;;;6.95;;
19137;SDS011;68178;52.188;5.598;2023-06-22T01:16:19;9.15;;;7.05;;
19137;SDS011;68178;52.188;5.598;2023-06-22T01:18:49;7.72;;;7.03;;
19137;SDS011;68178;52.188;5.598;2023-06-22T01:21:18;7.88;;;7.15;;
19137;SDS011;68178;52.188;5.598;2023-06-22T01:26:42;7.53;;;6.82;;
19137;SDS011;68178;52.188;5.598;2023-06-22T01:29:17;7.70;;;6.57;;
19137;SDS011;68178;52.188;5.598;2023-06-22T01:31:45;6.50;;;6.00;;
19137;SDS011;68178;52.188;5.598;2023-06-22T01:34:11;6.32;;;5.72;;
19137;SDS011;68178;52.188;5.598;2023-06-22T01:36:38;9.77;;;6.60;;
19137;SDS011;68178;52.188;5.598;2023-06-22T01:39:05;9.43;;;8.10;;
19137;SDS011;68178;52.188;5.598;2023-06-22T01:41:34;8.93;;;7.03;;
19137;SDS011;68178;52.188;5.598;2023-06-22T01:44:02;7.70;;;6.78;;
19137;SDS011;68178;52.188;5.598;2023-06-22T01:46:34;7.93;;;7.22;;
19137;SDS011;68178;52.188;5.598;2023-06-22T01:49:01;8.10;;;7.40;;
19137;SDS011;68178;52.188;5.598;2023-06-22T01:51:27;7.53;;;6.72;;
19137;SDS011;68178;52.188;5.598;2023-06-22T01:53:53;7.13;;;6.43;;
19137;SDS011;68178;52.188;5.598;2023-06-22T01:56:18;7.05;;;6.38;;
19137;SDS011;68178;52.188;5.598;2023-06-22T01:58:49;6.22;;;5.63;;
19137;SDS011;68178;52.188;5.598;2023-06-22T02:01:21;7.10;;;6.03;;
19137;SDS011;68178;52.188;5.598;2023-06-22T02:03:53;7.40;;;6.22;;
19137;SDS011;68178;52.188;5.598;2023-06-22T02:06:31;7.50;;;6.60;;
19137;SDS011;68178;52.188;5.598;2023-06-22T02:09:02;7.18;;;6.57;;
19137;SDS011;68178;52.188;5.598;2023-06-22T02:11:32;9.27;;;6.07;;
19137;SDS011;68178;52.188;5.598;2023-06-22T02:13:59;7.30;;;6.60;;
19137;SDS011;68178;52.188;5.598;2023-06-22T02:16:25;8.30;;;7.05;;
19137;SDS011;68178;52.188;5.598;2023-06-22T02:18:54;6.40;;;5.80;;
19137;SDS011;68178;52.188;5.598;2023-06-22T02:21:23;7.43;;;6.72;;
19137;SDS011;68178;52.188;5.598;2023-06-22T02:23:48;10.95;;;7.72;;
19137;SDS011;68178;52.188;5.598;2023-06-22T02:26:16;8.93;;;8.00;;
19137;SDS011;68178;52.188;5.598;2023-06-22T02:28:42;7.53;;;6.78;;
19137;SDS011;68178;52.188;5.598;2023-06-22T02:31:08;9.15;;;6.88;;
19137;SDS011;68178;52.188;5.598;2023-06-22T02:33:33;7.07;;;6.35;;
19137;SDS011;68178;52.188;5.598;2023-06-22T02:36:00;7.35;;;6.68;;
19137;SDS011;68178;52.188;5.598;2023-06-22T02:38:29;9.52;;;7.07;;
19137;SDS011;68178;52.188;5.598;2023-06-22T02:40:59;8.10;;;6.85;;
19137;SDS011;68178;52.188;5.598;2023-06-22T02:43:25;8.93;;;7.43;;
19137;SDS011;68178;52.188;5.598;2023-06-22T02:45:50;12.55;;;7.22;;
19137;SDS011;68178;52.188;5.598;2023-06-22T02:48:16;8.82;;;7.93;;
19137;SDS011;68178;52.188;5.598;2023-06-22T02:50:41;9.05;;;8.15;;
19137;SDS011;68178;52.188;5.598;2023-06-22T02:53:07;9.65;;;8.57;;
19137;SDS011;68178;52.188;5.598;2023-06-22T02:55:33;9.05;;;8.15;;
19137;SDS011;68178;52.188;5.598;2023-06-22T02:57:58;8.60;;;7.70;;
19137;SDS011;68178;52.188;5.598;2023-06-22T03:00:24;9.23;;;8.32;;
19137;SDS011;68178;52.188;5.598;2023-06-22T03:02:55;10.93;;;9.25;;
19137;SDS011;68178;52.188;5.598;2023-06-22T03:05:22;11.57;;;8.02;;
19137;SDS011;68178;52.188;5.598;2023-06-22T03:07:48;9.30;;;7.85;;
19137;SDS011;68178;52.188;5.598;2023-06-22T03:10:14;9.35;;;6.90;;
19137;SDS011;68178;52.188;5.598;2023-06-22T03:12:40;8.50;;;7.15;;
19137;SDS011;68178;52.188;5.598;2023-06-22T03:15:11;11.05;;;8.32;;
19137;SDS011;68178;52.188;5.598;2023-06-22T03:17:38;9.05;;;7.80;;
19137;SDS011;68178;52.188;5.598;2023-06-22T03:20:05;11.70;;;8.18;;
19137;SDS011;68178;52.188;5.598;2023-06-22T03:22:38;8.20;;;7.38;;
19137;SDS011;68178;52.188;5.598;2023-06-22T03:25:05;8.30;;;7.30;;
19137;SDS011;68178;52.188;5.598;2023-06-22T03:27:38;7.97;;;7.15;;
19137;SDS011;68178;52.188;5.598;2023-06-22T03:30:07;8.70;;;7.88;;
19137;SDS011;68178;52.188;5.598;2023-06-22T03:32:35;9.05;;;8.05;;
19137;SDS011;68178;52.188;5.598;2023-06-22T03:35:00;8.80;;;8.00;;
19137;SDS011;68178;52.188;5.598;2023-06-22T03:37:27;8.65;;;7.82;;
19137;SDS011;68178;52.188;5.598;2023-06-22T03:39:53;10.30;;;8.02;;
19137;SDS011;68178;52.188;5.598;2023-06-22T03:42:18;10.02;;;7.88;;
19137;SDS011;68178;52.188;5.598;2023-06-22T03:44:44;9.25;;;8.25;;
19137;SDS011;68178;52.188;5.598;2023-06-22T03:47:10;10.95;;;8.98;;
19137;SDS011;68178;52.188;5.598;2023-06-22T03:49:35;9.52;;;8.40;;
19137;SDS011;68178;52.188;5.598;2023-06-22T03:52:01;8.98;;;7.90;;
19137;SDS011;68178;52.188;5.598;2023-06-22T03:54:30;10.13;;;9.00;;
19137;SDS011;68178;52.188;5.598;2023-06-22T03:56:56;10.13;;;9.13;;
19137;SDS011;68178;52.188;5.598;2023-06-22T03:59:23;10.07;;;9.02;;
19137;SDS011;68178;52.188;5.598;2023-06-22T04:01:48;11.02;;;9.80;;
19137;SDS011;68178;52.188;5.598;2023-06-22T04:04:15;11.60;;;9.48;;
19137;SDS011;68178;52.188;5.598;2023-06-22T04:06:42;10.48;;;9.48;;
19137;SDS011;68178;52.188;5.598;2023-06-22T04:09:08;11.27;;;8.93;;
19137;SDS011;68178;52.188;5.598;2023-06-22T04:11:33;11.00;;;9.18;;
19137;SDS011;68178;52.188;5.598;2023-06-22T04:13:59;11.20;;;9.20;;
19137;SDS011;68178;52.188;5.598;2023-06-22T04:16:25;11.27;;;10.10;;
19137;SDS011;68178;52.188;5.598;2023-06-22T04:18:50;12.23;;;10.93;;
19137;SDS011;68178;52.188;5.598;2023-06-22T04:21:16;13.32;;;11.02;;
19137;SDS011;68178;52.188;5.598;2023-06-22T04:23:41;13.18;;;11.68;;
19137;SDS011;68178;52.188;5.598;2023-06-22T04:26:08;16.20;;;12.55;;
19137;SDS011;68178;52.188;5.598;2023-06-22T04:28:33;15.70;;;13.77;;
19137;SDS011;68178;52.188;5.598;2023-06-22T04:31:02;20.88;;;17.77;;
19137;SDS011;68178;52.188;5.598;2023-06-22T04:33:28;30.35;;;25.70;;
19137;SDS011;68178;52.188;5.598;2023-06-22T04:35:57;30.88;;;27.27;;
19137;SDS011;68178;52.188;5.598;2023-06-22T04:38:23;34.42;;;27.80;;
19137;SDS011;68178;52.188;5.598;2023-06-22T04:40:50;37.80;;;31.83;;
19137;SDS011;68178;52.188;5.598;2023-06-22T04:43:16;36.78;;;32.75;;
19137;SDS011;68178;52.188;5.598;2023-06-22T04:45:41;37.78;;;32.92;;
19137;SDS011;68178;52.188;5.598;2023-06-22T04:48:07;37.63;;;33.22;;
19137;SDS011;68178;52.188;5.598;2023-06-22T04:50:35;41.55;;;33.92;;
19137;SDS011;68178;52.188;5.598;2023-06-22T04:53:04;39.25;;;34.75;;
19137;SDS011;68178;52.188;5.598;2023-06-22T04:55:31;43.13;;;36.13;;
19137;SDS011;68178;52.188;5.598;2023-06-22T04:57:57;45.33;;;36.78;;
19137;SDS011;68178;52.188;5.598;2023-06-22T05:00:29;43.92;;;37.28;;
19137;SDS011;68178;52.188;5.598;2023-06-22T05:02:55;41.10;;;35.63;;
19137;SDS011;68178;52.188;5.598;2023-06-22T05:05:23;45.40;;;36.83;;
19137;SDS011;68178;52.188;5.598;2023-06-22T05:07:56;42.63;;;36.17;;
19137;SDS011;68178;52.188;5.598;2023-06-22T05:10:24;42.15;;;36.60;;
19137;SDS011;68178;52.188;5.598;2023-06-22T05:12:50;43.45;;;37.88;;
19137;SDS011;68178;52.188;5.598;2023-06-22T05:15:16;45.42;;;38.13;;
19137;SDS011;68178;52.188;5.598;2023-06-22T05:17:44;44.95;;;37.38;;
19137;SDS011;68178;52.188;5.598;2023-06-22T05:20:10;46.85;;;38.92;;
19137;SDS011;68178;52.188;5.598;2023-06-22T05:22:39;43.80;;;37.83;;
19137;SDS011;68178;52.188;5.598;2023-06-22T05:25:08;42.97;;;38.20;;
19137;SDS011;68178;52.188;5.598;2023-06-22T05:27:35;44.00;;;39.20;;
19137;SDS011;68178;52.188;5.598;2023-06-22T05:30:05;44.25;;;39.42;;
19137;SDS011;68178;52.188;5.598;2023-06-22T05:32:34;44.63;;;38.92;;
19137;SDS011;68178;52.188;5.598;2023-06-22T05:35:00;48.10;;;38.95;;
19137;SDS011;68178;52.188;5.598;2023-06-22T05:37:25;45.65;;;40.10;;
19137;SDS011;68178;52.188;5.598;2023-06-22T05:39:51;44.17;;;39.42;;
19137;SDS011;68178;52.188;5.598;2023-06-22T05:42:17;47.60;;;39.45;;
19137;SDS011;68178;52.188;5.598;2023-06-22T05:44:43;44.15;;;39.45;;
19137;SDS011;68178;52.188;5.598;2023-06-22T05:47:08;46.78;;;41.78;;
19137;SDS011;68178;52.188;5.598;2023-06-22T05:49:34;43.70;;;38.85;;
19137;SDS011;68178;52.188;5.598;2023-06-22T05:51:59;44.85;;;38.50;;
19137;SDS011;68178;52.188;5.598;2023-06-22T05:54:27;43.15;;;36.28;;
19137;SDS011;68178;52.188;5.598;2023-06-22T05:56:53;41.53;;;36.80;;
19137;SDS011;68178;52.188;5.598;2023-06-22T05:59:19;43.58;;;35.47;;
19137;SDS011;68178;52.188;5.598;2023-06-22T06:01:44;41.53;;;37.13;;
19137;SDS011;68178;52.188;5.598;2023-06-22T06:04:11;36.53;;;32.78;;
19137;SDS011;68178;52.188;5.598;2023-06-22T06:06:37;36.67;;;32.35;;
19137;SDS011;68178;52.188;5.598;2023-06-22T06:09:03;37.58;;;33.58;;
19137;SDS011;68178;52.188;5.598;2023-06-22T06:11:29;36.00;;;32.17;;
19137;SDS011;68178;52.188;5.598;2023-06-22T06:13:55;34.72;;;30.50;;
19137;SDS011;68178;52.188;5.598;2023-06-22T06:16:21;32.50;;;29.08;;
19137;SDS011;68178;52.188;5.598;2023-06-22T06:18:47;33.20;;;29.52;;
19137;SDS011;68178;52.188;5.598;2023-06-22T06:21:19;30.80;;;27.63;;
19137;SDS011;68178;52.188;5.598;2023-06-22T06:23:45;30.98;;;27.77;;
19137;SDS011;68178;52.188;5.598;2023-06-22T06:26:13;30.42;;;27.33;;
19137;SDS011;68178;52.188;5.598;2023-06-22T06:28:41;28.90;;;25.80;;
19137;SDS011;68178;52.188;5.598;2023-06-22T06:31:07;29.17;;;24.92;;
19137;SDS011;68178;52.188;5.598;2023-06-22T06:33:34;27.23;;;24.42;;
19137;SDS011;68178;52.188;5.598;2023-06-22T06:36:00;26.58;;;23.90;;
19137;SDS011;68178;52.188;5.598;2023-06-22T06:38:28;26.35;;;23.58;;
19137;SDS011;68178;52.188;5.598;2023-06-22T06:40:57;28.50;;;23.92;;
19137;SDS011;68178;52.188;5.598;2023-06-22T06:43:23;26.42;;;22.70;;
19137;SDS011;68178;52.188;5.598;2023-06-22T06:45:49;24.50;;;21.90;;
19137;SDS011;68178;52.188;5.598;2023-06-22T06:48:15;22.50;;;20.15;;
19137;SDS011;68178;52.188;5.598;2023-06-22T06:50:42;23.70;;;20.95;;
19137;SDS011;68178;52.188;5.598;2023-06-22T06:53:09;26.88;;;23.30;;
19137;SDS011;68178;52.188;5.598;2023-06-22T06:55:35;23.98;;;21.10;;
19137;SDS011;68178;52.188;5.598;2023-06-22T06:58:01;26.30;;;21.35;;
19137;SDS011;68178;52.188;5.598;2023-06-22T07:00:29;22.02;;;19.40;;
19137;SDS011;68178;52.188;5.598;2023-06-22T07:02:54;20.20;;;18.15;;
19137;SDS011;68178;52.188;5.598;2023-06-22T07:05:20;22.48;;;20.23;;
19137;SDS011;68178;52.188;5.598;2023-06-22T07:07:46;21.52;;;19.15;;
19137;SDS011;68178;52.188;5.598;2023-06-22T07:10:11;20.50;;;18.30;;
19137;SDS011;68178;52.188;5.598;2023-06-22T07:12:37;20.10;;;18.10;;
19137;SDS011;68178;52.188;5.598;2023-06-22T07:15:03;23.48;;;17.52;;
19137;SDS011;68178;52.188;5.598;2023-06-22T07:17:32;19.17;;;16.83;;
19137;SDS011;68178;52.188;5.598;2023-06-22T07:19:58;19.27;;;16.80;;
19137;SDS011;68178;52.188;5.598;2023-06-22T07:22:24;18.45;;;16.25;;
19137;SDS011;68178;52.188;5.598;2023-06-22T07:24:50;18.10;;;16.38;;
19137;SDS011;68178;52.188;5.598;2023-06-22T07:27:16;19.92;;;16.35;;
19137;SDS011;68178;52.188;5.598;2023-06-22T07:29:44;18.65;;;16.90;;
19137;SDS011;68178;52.188;5.598;2023-06-22T07:32:10;22.90;;;16.15;;
19137;SDS011;68178;52.188;5.598;2023-06-22T07:34:36;16.52;;;14.90;;
19137;SDS011;68178;52.188;5.598;2023-06-22T07:37:01;20.90;;;16.35;;
19137;SDS011;68178;52.188;5.598;2023-06-22T07:39:27;17.08;;;14.52;;
19137;SDS011;68178;52.188;5.598;2023-06-22T07:41:53;15.70;;;14.07;;
19137;SDS011;68178;52.188;5.598;2023-06-22T07:44:19;18.77;;;15.63;;
19137;SDS011;68178;52.188;5.598;2023-06-22T07:46:45;19.90;;;14.77;;
19137;SDS011;68178;52.188;5.598;2023-06-22T07:49:11;14.48;;;12.60;;
19137;SDS011;68178;52.188;5.598;2023-06-22T07:51:38;13.75;;;12.45;;
19137;SDS011;68178;52.188;5.598;2023-06-22T07:54:04;13.98;;;12.68;;
19137;SDS011;68178;52.188;5.598;2023-06-22T07:56:30;13.07;;;11.73;;
19137;SDS011;68178;52.188;5.598;2023-06-22T07:58:56;14.23;;;12.73;;
19137;SDS011;68178;52.188;5.598;2023-06-22T08:01:24;12.77;;;11.65;;
19137;SDS011;68178;52.188;5.598;2023-06-22T08:03:49;16.55;;;13.05;;
19137;SDS011;68178;52.188;5.598;2023-06-22T08:06:17;12.85;;;11.60;;
19137;SDS011;68178;52.188;5.598;2023-06-22T08:08:42;13.20;;;11.57;;
19137;SDS011;68178;52.188;5.598;2023-06-22T08:11:08;13.07;;;11.77;;
19137;SDS011;68178;52.188;5.598;2023-06-22T08:13:34;12.00;;;10.80;;
19137;SDS011;68178;52.188;5.598;2023-06-22T08:16:00;13.07;;;11.57;;
19137;SDS011;68178;52.188;5.598;2023-06-22T08:18:25;13.95;;;11.40;;
19137;SDS011;68178;52.188;5.598;2023-06-22T08:20:51;12.50;;;11.27;;
19137;SDS011;68178;52.188;5.598;2023-06-22T08:23:17;11.88;;;10.35;;
19137;SDS011;68178;52.188;5.598;2023-06-22T08:25:43;9.65;;;8.70;;
19137;SDS011;68178;52.188;5.598;2023-06-22T08:28:09;12.52;;;10.68;;
19137;SDS011;68178;52.188;5.598;2023-06-22T08:30:34;12.52;;;9.93;;
19137;SDS011;68178;52.188;5.598;2023-06-22T08:33:00;11.93;;;9.02;;
19137;SDS011;68178;52.188;5.598;2023-06-22T08:35:25;9.57;;;8.60;;
19137;SDS011;68178;52.188;5.598;2023-06-22T08:37:51;12.25;;;10.70;;
19137;SDS011;68178;52.188;5.598;2023-06-22T08:40:21;14.07;;;11.20;;
19137;SDS011;68178;52.188;5.598;2023-06-22T08:42:48;11.18;;;10.07;;
19137;SDS011;68178;52.188;5.598;2023-06-22T08:45:14;10.90;;;9.10;;
19137;SDS011;68178;52.188;5.598;2023-06-22T08:47:40;10.57;;;8.75;;
19137;SDS011;68178;52.188;5.598;2023-06-22T08:50:07;10.77;;;9.32;;
19137;SDS011;68178;52.188;5.598;2023-06-22T08:52:33;8.35;;;7.55;;
19137;SDS011;68178;52.188;5.598;2023-06-22T08:54:59;10.60;;;8.18;;
19137;SDS011;68178;52.188;5.598;2023-06-22T08:57:25;9.02;;;7.97;;
19137;SDS011;68178;52.188;5.598;2023-06-22T08:59:51;9.55;;;8.25;;
19137;SDS011;68178;52.188;5.598;2023-06-22T09:02:23;7.35;;;6.65;;
19137;SDS011;68178;52.188;5.598;2023-06-22T09:04:49;10.30;;;8.25;;
19137;SDS011;68178;52.188;5.598;2023-06-22T09:07:21;8.07;;;7.18;;
19137;SDS011;68178;52.188;5.598;2023-06-22T09:09:48;8.48;;;7.70;;
19137;SDS011;68178;52.188;5.598;2023-06-22T09:12:14;9.95;;;7.13;;
19137;SDS011;68178;52.188;5.598;2023-06-22T09:14:39;8.10;;;7.30;;
19137;SDS011;68178;52.188;5.598;2023-06-22T09:17:05;7.05;;;6.38;;
19137;SDS011;68178;52.188;5.598;2023-06-22T09:19:30;6.65;;;5.95;;
19137;SDS011;68178;52.188;5.598;2023-06-22T09:21:56;8.93;;;7.57;;
19137;SDS011;68178;52.188;5.598;2023-06-22T09:24:22;9.93;;;7.97;;
19137;SDS011;68178;52.188;5.598;2023-06-22T09:26:47;8.93;;;7.97;;
19137;SDS011;68178;52.188;5.598;2023-06-22T09:29:13;7.60;;;6.90;;
19137;SDS011;68178;52.188;5.598;2023-06-22T09:31:38;8.82;;;6.75;;
19137;SDS011;68178;52.188;5.598;2023-06-22T09:34:04;10.00;;;6.95;;
19137;SDS011;68178;52.188;5.598;2023-06-22T09:36:30;7.65;;;6.95;;
19137;SDS011;68178;52.188;5.598;2023-06-22T09:38:57;8.20;;;7.43;;
19137;SDS011;68178;52.188;5.598;2023-06-22T09:41:23;7.32;;;5.82;;
19137;SDS011;68178;52.188;5.598;2023-06-22T09:43:50;7.60;;;6.65;;
19137;SDS011;68178;52.188;5.598;2023-06-22T09:46:16;8.18;;;6.38;;
19137;SDS011;68178;52.188;5.598;2023-06-22T09:48:42;10.43;;;9.32;;
19137;SDS011;68178;52.188;5.598;2023-06-22T09:51:07;7.22;;;5.72;;
19137;SDS011;68178;52.188;5.598;2023-06-22T09:53:33;7.20;;;4.80;;
19137;SDS011;68178;52.188;5.598;2023-06-22T09:55:59;6.10;;;5.55;;
19137;SDS011;68178;52.188;5.598;2023-06-22T09:58:26;9.98;;;5.93;;
19137;SDS011;68178;52.188;5.598;2023-06-22T10:00:53;7.70;;;6.90;;
19137;SDS011;68178;52.188;5.598;2023-06-22T10:03:19;8.02;;;6.60;;
19137;SDS011;68178;52.188;5.598;2023-06-22T10:05:45;9.43;;;6.65;;
19137;SDS011;68178;52.188;5.598;2023-06-22T10:08:12;9.05;;;5.40;;
19137;SDS011;68178;52.188;5.598;2023-06-22T10:10:40;7.78;;;6.65;;
19137;SDS011;68178;52.188;5.598;2023-06-22T10:13:09;9.43;;;8.00;;
19137;SDS011;68178;52.188;5.598;2023-06-22T10:15:35;7.72;;;6.38;;
19137;SDS011;68178;52.188;5.598;2023-06-22T10:18:02;7.85;;;7.07;;
19137;SDS011;68178;52.188;5.598;2023-06-22T10:20:34;7.93;;;7.18;;
19137;SDS011;68178;52.188;5.598;2023-06-22T10:22:59;8.75;;;7.93;;
19137;SDS011;68178;52.188;5.598;2023-06-22T10:25:26;8.18;;;7.38;;
19137;SDS011;68178;52.188;5.598;2023-06-22T10:27:52;8.73;;;7.82;;
19137;SDS011;68178;52.188;5.598;2023-06-22T10:30:18;9.02;;;7.65;;
19137;SDS011;68178;52.188;5.598;2023-06-22T10:32:43;10.18;;;7.72;;
19137;SDS011;68178;52.188;5.598;2023-06-22T10:35:09;8.95;;;7.18;;
19137;SDS011;68178;52.188;5.598;2023-06-22T10:37:42;10.23;;;6.10;;
19137;SDS011;68178;52.188;5.598;2023-06-22T10:40:11;8.07;;;6.40;;
19137;SDS011;68178;52.188;5.598;2023-06-22T10:42:38;8.40;;;7.60;;
19137;SDS011;68178;52.188;5.598;2023-06-22T10:45:04;8.48;;;6.88;;
19137;SDS011;68178;52.188;5.598;2023-06-22T10:47:30;10.38;;;7.30;;
19137;SDS011;68178;52.188;5.598;2023-06-22T10:49:56;9.90;;;7.88;;
19137;SDS011;68178;52.188;5.598;2023-06-22T10:52:21;11.13;;;8.75;;
19137;SDS011;68178;52.188;5.598;2023-06-22T10:54:47;11.95;;;8.40;;
19137;SDS011;68178;52.188;5.598;2023-06-22T10:57:12;9.10;;;7.78;;
19137;SDS011;68178;52.188;5.598;2023-06-22T10:59:39;7.95;;;7.25;;
19137;SDS011;68178;52.188;5.598;2023-06-22T11:02:05;9.35;;;7.95;;
19137;SDS011;68178;52.188;5.598;2023-06-22T11:04:31;7.88;;;7.18;;
19137;SDS011;68178;52.188;5.598;2023-06-22T11:06:57;7.00;;;6.22;;
19137;SDS011;68178;52.188;5.598;2023-06-22T11:09:23;7.00;;;6.40;;
19137;SDS011;68178;52.188;5.598;2023-06-22T11:11:49;7.35;;;6.03;;
19137;SDS011;68178;52.188;5.598;2023-06-22T11:14:16;5.95;;;5.43;;
19137;SDS011;68178;52.188;5.598;2023-06-22T11:16:41;6.68;;;5.90;;
19137;SDS011;68178;52.188;5.598;2023-06-22T11:19:07;9.65;;;7.70;;
19137;SDS011;68178;52.188;5.598;2023-06-22T11:21:33;8.00;;;7.30;;
19137;SDS011;68178;52.188;5.598;2023-06-22T11:23:59;9.43;;;8.43;;
19137;SDS011;68178;52.188;5.598;2023-06-22T11:26:25;7.38;;;6.72;;
19137;SDS011;68178;52.188;5.598;2023-06-22T11:28:54;9.68;;;7.78;;
19137;SDS011;68178;52.188;5.598;2023-06-22T11:31:19;9.35;;;8.45;;
19137;SDS011;68178;52.188;5.598;2023-06-22T11:33:45;11.43;;;9.88;;
19137;SDS011;68178;52.188;5.598;2023-06-22T11:36:12;9.60;;;8.63;;
19137;SDS011;68178;52.188;5.598;2023-06-22T11:38:37;9.73;;;8.82;;
19137;SDS011;68178;52.188;5.598;2023-06-22T11:41:05;11.45;;;9.70;;
19137;SDS011;68178;52.188;5.598;2023-06-22T11:43:31;10.13;;;9.13;;
19137;SDS011;68178;52.188;5.598;2023-06-22T11:46:00;10.27;;;9.20;;
19137;SDS011;68178;52.188;5.598;2023-06-22T11:48:27;9.18;;;8.10;;
19137;SDS011;68178;52.188;5.598;2023-06-22T11:50:52;10.80;;;9.70;;
19137;SDS011;68178;52.188;5.598;2023-06-22T11:53:20;10.10;;;9.10;;
19137;SDS011;68178;52.188;5.598;2023-06-22T11:55:46;11.98;;;9.35;;
19137;SDS011;68178;52.188;5.598;2023-06-22T11:58:12;10.30;;;9.32;;
19137;SDS011;68178;52.188;5.598;2023-06-22T12:00:37;11.25;;;10.10;;
19137;SDS011;68178;52.188;5.598;2023-06-22T12:03:03;11.60;;;10.38;;
19137;SDS011;68178;52.188;5.598;2023-06-22T12:05:29;11.05;;;8.93;;
19137;SDS011;68178;52.188;5.598;2023-06-22T12:07:55;9.98;;;9.10;;
19137;SDS011;68178;52.188;5.598;2023-06-22T12:10:21;9.15;;;8.35;;
19137;SDS011;68178;52.188;5.598;2023-06-22T12:12:47;10.05;;;8.70;;
19137;SDS011;68178;52.188;5.598;2023-06-22T12:15:13;7.75;;;6.78;;
19137;SDS011;68178;52.188;5.598;2023-06-22T12:17:39;8.20;;;7.38;;
19137;SDS011;68178;52.188;5.598;2023-06-22T12:20:05;9.32;;;8.43;;
19137;SDS011;68178;52.188;5.598;2023-06-22T12:22:32;10.32;;;8.10;;
19137;SDS011;68178;52.188;5.598;2023-06-22T12:24:58;8.63;;;7.78;;
19137;SDS011;68178;52.188;5.598;2023-06-22T12:27:24;9.30;;;8.45;;
19137;SDS011;68178;52.188;5.598;2023-06-22T12:29:50;10.73;;;8.48;;
19137;SDS011;68178;52.188;5.598;2023-06-22T12:32:16;10.45;;;9.35;;
19137;SDS011;68178;52.188;5.598;2023-06-22T12:34:42;12.10;;;10.88;;
19137;SDS011;68178;52.188;5.598;2023-06-22T12:37:08;11.38;;;10.27;;
19137;SDS011;68178;52.188;5.598;2023-06-22T12:39:34;11.90;;;10.45;;
19137;SDS011;68178;52.188;5.598;2023-06-22T12:42:00;11.10;;;9.35;;
19137;SDS011;68178;52.188;5.598;2023-06-22T12:44:25;11.88;;;10.52;;
19137;SDS011;68178;52.188;5.598;2023-06-22T12:46:51;12.50;;;10.35;;
19137;SDS011;68178;52.188;5.598;2023-06-22T12:49:17;11.00;;;9.80;;
19137;SDS011;68178;52.188;5.598;2023-06-22T12:51:43;10.93;;;9.85;;
19137;SDS011;68178;52.188;5.598;2023-06-22T12:54:09;12.40;;;11.10;;
19137;SDS011;68178;52.188;5.598;2023-06-22T12:56:36;11.55;;;10.38;;
19137;SDS011;68178;52.188;5.598;2023-06-22T12:59:04;13.00;;;9.88;;
19137;SDS011;68178;52.188;5.598;2023-06-22T13:01:31;11.07;;;9.95;;
19137;SDS011;68178;52.188;5.598;2023-06-22T13:03:57;10.77;;;9.65;;
19137;SDS011;68178;52.188;5.598;2023-06-22T13:06:25;9.57;;;8.75;;
19137;SDS011;68178;52.188;5.598;2023-06-22T13:08:51;10.43;;;9.45;;
19137;SDS011;68178;52.188;5.598;2023-06-22T13:11:16;11.82;;;8.32;;
19137;SDS011;68178;52.188;5.598;2023-06-22T13:13:43;9.68;;;8.70;;
19137;SDS011;68178;52.188;5.598;2023-06-22T13:16:09;11.02;;;8.70;;
19137;SDS011;68178;52.188;5.598;2023-06-22T13:18:35;9.23;;;8.30;;
19137;SDS011;68178;52.188;5.598;2023-06-22T13:21:01;10.40;;;9.43;;
19137;SDS011;68178;52.188;5.598;2023-06-22T13:23:27;8.48;;;7.68;;
19137;SDS011;68178;52.188;5.598;2023-06-22T13:25:52;9.55;;;8.65;;
19137;SDS011;68178;52.188;5.598;2023-06-22T13:28:18;10.55;;;9.20;;
19137;SDS011;68178;52.188;5.598;2023-06-22T13:30:45;10.57;;;9.57;;
19137;SDS011;68178;52.188;5.598;2023-06-22T13:33:12;10.88;;;9.95;;
19137;SDS011;68178;52.188;5.598;2023-06-22T13:35:40;11.98;;;10.90;;
19137;SDS011;68178;52.188;5.598;2023-06-22T13:38:09;12.18;;;10.88;;
19137;SDS011;68178;52.188;5.598;2023-06-22T13:40:35;13.77;;;12.30;;
19137;SDS011;68178;52.188;5.598;2023-06-22T13:43:02;12.93;;;11.57;;
19137;SDS011;68178;52.188;5.598;2023-06-22T13:45:31;14.07;;;12.15;;
19137;SDS011;68178;52.188;5.598;2023-06-22T13:47:57;13.35;;;12.02;;
19137;SDS011;68178;52.188;5.598;2023-06-22T13:50:23;12.38;;;11.18;;
19137;SDS011;68178;52.188;5.598;2023-06-22T13:52:49;16.42;;;12.57;;
19137;SDS011;68178;52.188;5.598;2023-06-22T13:55:15;12.25;;;11.10;;
19137;SDS011;68178;52.188;5.598;2023-06-22T13:57:40;13.02;;;11.82;;
19137;SDS011;68178;52.188;5.598;2023-06-22T14:00:07;12.68;;;11.38;;
19137;SDS011;68178;52.188;5.598;2023-06-22T14:02:33;14.45;;;12.88;;
19137;SDS011;68178;52.188;5.598;2023-06-22T14:04:59;14.02;;;12.73;;
19137;SDS011;68178;52.188;5.598;2023-06-22T14:07:24;13.90;;;12.57;;
19137;SDS011;68178;52.188;5.598;2023-06-22T14:09:50;14.18;;;12.70;;
19137;SDS011;68178;52.188;5.598;2023-06-22T14:12:16;12.60;;;11.55;;
19137;SDS011;68178;52.188;5.598;2023-06-22T14:14:43;15.27;;;13.73;;
19137;SDS011;68178;52.188;5.598;2023-06-22T14:17:09;14.10;;;12.77;;
19137;SDS011;68178;52.188;5.598;2023-06-22T14:19:35;16.65;;;14.05;;
19137;SDS011;68178;52.188;5.598;2023-06-22T14:22:01;14.80;;;13.40;;
19137;SDS011;68178;52.188;5.598;2023-06-22T14:24:27;14.52;;;13.27;;
19137;SDS011;68178;52.188;5.598;2023-06-22T14:26:53;13.95;;;12.68;;
19137;SDS011;68178;52.188;5.598;2023-06-22T14:29:20;14.27;;;12.88;;
19137;SDS011;68178;52.188;5.598;2023-06-22T14:31:47;13.85;;;12.63;;
19137;SDS011;68178;52.188;5.598;2023-06-22T14:34:13;16.08;;;14.35;;
19137;SDS011;68178;52.188;5.598;2023-06-22T14:36:39;15.63;;;14.07;;